Jacksonville, FL (32212)

12:02 AM EDT on August 30, 2015 (GMT -0400)
Venetia | | Change Station
CLOSE
Current Station
Personal Weather Station
Location: Jacksonville, FL
Elevation: 21 ft
Nearby Weather Stations

Elev 21 ft 30.25 °N, 81.69 °W | Updated 1 minute ago

Light Rain
Light Rain
76.7 °F
Feels Like 77 °F
N
0.0
Wind Variable Wind from East
Gusts 9.0 mph

Today
High -- | Low -- °F
--% Chance of Precip.
Yesterday
High -- | Low -- °F
Precip. -- in
7:02 AM 7:52 PM
Full, 100% visible
Pressure 30.08 in
Visibility 10.0 miles
Clouds Few 6000 ft
Mostly Cloudy 11000 ft
Heat Index 77 °F
Dew Point 75 °F
Humidity 95%
Rainfall in
Snow Depth Not available.
UV 0 out of 12
Pollen 4.00 out of 12
Air Quality Not available.
Flu Activity Not available.
METAR KNIP 300353Z AUTO 00000KT 10SM -RA FEW060 BKN110 27/23 A3009 RMK AO2 RAB45 SLP185 P0000 T02670228 $
Pressure 30.08 in
Visibility 10.0 miles
Clouds Few 6000 ft
Mostly Cloudy 11000 ft
Heat Index 77 °F
Dew Point 75 °F
Humidity 95%
Rainfall in
Snow Depth Not available.
UV 0 out of 12
Pollen 4.00 out of 12
Air Quality Not available.
Flu Activity Not available.
METAR KNIP 300353Z AUTO 00000KT 10SM -RA FEW060 BKN110 27/23 A3009 RMK AO2 RAB45 SLP185 P0000 T02670228 $

10-Day Weather Forecast

×

Almanac

Astronomy

Aug. 30, 2015 Rise Set
Actual Time
Civil Twilight
Nautical Twilight
Astronomical Twilight
Moon
Length of Visible Light
Length of Day
Tomorrow will be .
, % of the Moon is Illuminated

Today's Extremes

State Highs State Lows

Community

WunderPhotos

Upload Photos

1,850,876 photos uploaded!

WunderBlogs® & News

Nearby

Air Quality

  Air Quality AQ Index Pollutant
Not available.

Snow Depth

Station Depth Elevation

Earthquake Activity

City Distance Mag. Time & Date
Minimum magnitude displayed is 2.5.

Coastal Water Temperatures

Place Temperature

Stations

Nearby Weather Stations

Station Location Temp. Windchill Dew Point Humidity Wind Precip. Elev Updated Type